sensor_id;sensor_type;location;lat;lon;timestamp;pressure;altitude;pressure_sealevel;temperature;humidity
41044;BME280;51680;49.806;18.774;2023-02-01T00:00:00;96934.50;;;4.45;84.93
41044;BME280;51680;49.806;18.774;2023-02-01T00:03:02;96933.53;;;4.48;84.66
41044;BME280;51680;49.806;18.774;2023-02-01T00:06:05;96927.34;;;4.33;84.98
41044;BME280;51680;49.806;18.774;2023-02-01T00:09:07;96932.56;;;4.32;84.97
41044;BME280;51680;49.806;18.774;2023-02-01T00:12:09;96921.06;;;4.39;85.08
41044;BME280;51680;49.806;18.774;2023-02-01T00:15:12;96920.19;;;4.38;85.13
41044;BME280;51680;49.806;18.774;2023-02-01T00:18:14;96922.66;;;4.41;84.52
41044;BME280;51680;49.806;18.774;2023-02-01T00:21:17;96921.44;;;4.48;84.54
41044;BME280;51680;49.806;18.774;2023-02-01T00:24:19;96908.53;;;4.48;84.77
41044;BME280;51680;49.806;18.774;2023-02-01T00:27:21;96924.16;;;4.45;84.87
41044;BME280;51680;49.806;18.774;2023-02-01T00:30:43;96908.75;;;4.44;84.38
41044;BME280;51680;49.806;18.774;2023-02-01T00:33:46;96911.41;;;4.42;84.56
41044;BME280;51680;49.806;18.774;2023-02-01T00:36:49;96918.25;;;4.43;84.25
41044;BME280;51680;49.806;18.774;2023-02-01T00:39:51;96906.16;;;4.44;84.46
41044;BME280;51680;49.806;18.774;2023-02-01T00:43:14;96928.44;;;4.46;84.63
41044;BME280;51680;49.806;18.774;2023-02-01T00:46:18;96918.72;;;4.51;84.31
41044;BME280;51680;49.806;18.774;2023-02-01T00:49:21;96908.09;;;4.57;83.97
41044;BME280;51680;49.806;18.774;2023-02-01T00:52:23;96909.69;;;4.60;83.78
41044;BME280;51680;49.806;18.774;2023-02-01T00:55:25;96903.66;;;4.59;84.03
41044;BME280;51680;49.806;18.774;2023-02-01T00:58:27;96895.84;;;4.61;83.43
41044;BME280;51680;49.806;18.774;2023-02-01T01:01:30;96911.22;;;4.64;83.84
41044;BME280;51680;49.806;18.774;2023-02-01T01:04:32;96904.44;;;4.61;83.62
41044;BME280;51680;49.806;18.774;2023-02-01T01:07:34;96909.63;;;4.61;83.52
41044;BME280;51680;49.806;18.774;2023-02-01T01:10:35;96912.69;;;4.69;83.77
41044;BME280;51680;49.806;18.774;2023-02-01T01:13:38;96920.31;;;4.71;83.27
41044;BME280;51680;49.806;18.774;2023-02-01T01:16:41;96902.47;;;4.66;83.82
41044;BME280;51680;49.806;18.774;2023-02-01T01:19:42;96909.81;;;4.57;84.59
41044;BME280;51680;49.806;18.774;2023-02-01T01:22:44;96911.03;;;4.67;83.91
41044;BME280;51680;49.806;18.774;2023-02-01T01:25:46;96894.72;;;4.66;84.10
41044;BME280;51680;49.806;18.774;2023-02-01T01:28:48;96893.19;;;4.62;84.49
41044;BME280;51680;49.806;18.774;2023-02-01T01:31:51;96895.16;;;4.57;84.24
41044;BME280;51680;49.806;18.774;2023-02-01T01:34:53;96890.75;;;4.59;84.65
41044;BME280;51680;49.806;18.774;2023-02-01T01:37:55;96904.50;;;4.60;84.57
41044;BME280;51680;49.806;18.774;2023-02-01T01:40:57;96895.16;;;4.57;84.57
41044;BME280;51680;49.806;18.774;2023-02-01T01:44:01;96899.09;;;4.47;85.10
41044;BME280;51680;49.806;18.774;2023-02-01T01:47:04;96899.47;;;4.57;84.56
41044;BME280;51680;49.806;18.774;2023-02-01T01:50:08;96891.97;;;4.52;84.82
41044;BME280;51680;49.806;18.774;2023-02-01T01:53:14;96891.97;;;4.52;84.97
41044;BME280;51680;49.806;18.774;2023-02-01T01:56:17;96882.97;;;4.42;85.02
41044;BME280;51680;49.806;18.774;2023-02-01T01:59:19;96890.56;;;4.45;85.11
41044;BME280;51680;49.806;18.774;2023-02-01T02:02:23;96882.00;;;4.45;85.05
41044;BME280;51680;49.806;18.774;2023-02-01T02:05:26;96892.41;;;4.43;85.25
41044;BME280;51680;49.806;18.774;2023-02-01T02:08:29;96866.25;;;4.32;85.47
41044;BME280;51680;49.806;18.774;2023-02-01T02:11:31;96875.66;;;4.33;86.16
41044;BME280;51680;49.806;18.774;2023-02-01T02:14:33;96878.88;;;4.38;85.28
41044;BME280;51680;49.806;18.774;2023-02-01T02:17:40;96891.41;;;4.46;85.52
41044;BME280;51680;49.806;18.774;2023-02-01T02:20:58;96904.13;;;4.50;85.45
41044;BME280;51680;49.806;18.774;2023-02-01T02:24:19;96917.38;;;4.61;84.85
41044;BME280;51680;49.806;18.774;2023-02-01T02:27:36;96945.44;;;4.69;85.00
41044;BME280;51680;49.806;18.774;2023-02-01T02:31:06;96960.81;;;4.72;84.90
41044;BME280;51680;49.806;18.774;2023-02-01T02:34:22;96957.97;;;4.76;84.54
41044;BME280;51680;49.806;18.774;2023-02-01T02:37:34;96951.72;;;4.63;83.90
41044;BME280;51680;49.806;18.774;2023-02-01T02:40:46;96969.59;;;4.68;83.93
41044;BME280;51680;49.806;18.774;2023-02-01T02:43:56;96984.63;;;4.60;83.54
41044;BME280;51680;49.806;18.774;2023-02-01T02:47:23;96983.59;;;4.45;83.95
41044;BME280;51680;49.806;18.774;2023-02-01T02:50:34;96990.31;;;4.31;83.93
41044;BME280;51680;49.806;18.774;2023-02-01T02:54:17;96987.50;;;4.17;84.78
41044;BME280;51680;49.806;18.774;2023-02-01T02:57:40;96985.34;;;4.08;84.70
41044;BME280;51680;49.806;18.774;2023-02-01T03:01:01;96970.88;;;4.04;85.27
41044;BME280;51680;49.806;18.774;2023-02-01T03:04:22;96967.25;;;4.08;85.25
41044;BME280;51680;49.806;18.774;2023-02-01T03:07:52;96973.00;;;4.14;85.37
41044;BME280;51680;49.806;18.774;2023-02-01T03:10:58;96971.34;;;4.13;84.81
41044;BME280;51680;49.806;18.774;2023-02-01T03:14:02;96962.78;;;4.11;84.97
41044;BME280;51680;49.806;18.774;2023-02-01T03:17:11;96954.72;;;4.00;85.46
41044;BME280;51680;49.806;18.774;2023-02-01T03:20:16;96963.38;;;3.99;85.37
41044;BME280;51680;49.806;18.774;2023-02-01T03:23:24;96959.75;;;4.03;85.70
41044;BME280;51680;49.806;18.774;2023-02-01T03:26:31;96972.66;;;4.03;85.57
41044;BME280;51680;49.806;18.774;2023-02-01T03:29:41;96975.38;;;4.00;85.70
41044;BME280;51680;49.806;18.774;2023-02-01T03:32:46;96971.94;;;4.00;85.87
41044;BME280;51680;49.806;18.774;2023-02-01T03:36:12;96968.66;;;3.96;85.86
41044;BME280;51680;49.806;18.774;2023-02-01T03:39:21;96963.78;;;3.90;86.13
41044;BME280;51680;49.806;18.774;2023-02-01T03:42:30;96966.22;;;3.93;86.53
41044;BME280;51680;49.806;18.774;2023-02-01T03:45:37;96953.94;;;3.98;86.34
41044;BME280;51680;49.806;18.774;2023-02-01T03:48:43;96969.09;;;4.06;86.04
41044;BME280;51680;49.806;18.774;2023-02-01T03:51:47;96969.91;;;4.06;85.81
41044;BME280;51680;49.806;18.774;2023-02-01T03:54:52;96965.47;;;4.10;85.46
41044;BME280;51680;49.806;18.774;2023-02-01T03:57:58;96971.47;;;4.10;85.23
41044;BME280;51680;49.806;18.774;2023-02-01T04:01:02;96964.56;;;4.11;84.62
41044;BME280;51680;49.806;18.774;2023-02-01T04:04:10;96962.66;;;4.14;84.65
41044;BME280;51680;49.806;18.774;2023-02-01T04:07:20;96964.97;;;4.20;84.89
41044;BME280;51680;49.806;18.774;2023-02-01T04:10:23;96965.59;;;4.25;84.17
41044;BME280;51680;49.806;18.774;2023-02-01T04:13:25;96969.66;;;4.31;83.64
41044;BME280;51680;49.806;18.774;2023-02-01T04:16:26;96960.28;;;4.28;83.69
41044;BME280;51680;49.806;18.774;2023-02-01T04:19:28;96979.41;;;4.24;83.50
41044;BME280;51680;49.806;18.774;2023-02-01T04:22:30;96966.50;;;4.24;83.65
41044;BME280;51680;49.806;18.774;2023-02-01T04:25:33;96977.63;;;4.26;83.54
41044;BME280;51680;49.806;18.774;2023-02-01T04:28:35;96971.94;;;4.37;83.52
41044;BME280;51680;49.806;18.774;2023-02-01T04:31:36;96981.44;;;4.36;83.11
41044;BME280;51680;49.806;18.774;2023-02-01T04:34:38;96965.03;;;4.37;82.76
41044;BME280;51680;49.806;18.774;2023-02-01T04:37:40;96978.09;;;4.34;82.49
41044;BME280;51680;49.806;18.774;2023-02-01T04:40:43;96971.13;;;4.36;81.86
41044;BME280;51680;49.806;18.774;2023-02-01T04:43:45;96977.16;;;4.35;81.25
41044;BME280;51680;49.806;18.774;2023-02-01T04:46:47;96968.53;;;4.36;81.15
41044;BME280;51680;49.806;18.774;2023-02-01T04:49:49;96987.25;;;4.41;80.71
41044;BME280;51680;49.806;18.774;2023-02-01T04:52:50;96985.84;;;4.53;81.26
41044;BME280;51680;49.806;18.774;2023-02-01T04:55:53;96988.06;;;4.60;80.24
41044;BME280;51680;49.806;18.774;2023-02-01T04:58:55;96981.19;;;4.59;79.77
41044;BME280;51680;49.806;18.774;2023-02-01T05:01:57;96984.69;;;4.58;79.16
41044;BME280;51680;49.806;18.774;2023-02-01T05:04:59;96994.91;;;4.61;80.01
41044;BME280;51680;49.806;18.774;2023-02-01T05:08:01;96991.69;;;4.56;80.01
41044;BME280;51680;49.806;18.774;2023-02-01T05:11:04;96993.66;;;4.51;79.35
41044;BME280;51680;49.806;18.774;2023-02-01T05:14:06;96985.84;;;4.53;80.13
41044;BME280;51680;49.806;18.774;2023-02-01T05:17:06;96986.53;;;4.56;80.75
41044;BME280;51680;49.806;18.774;2023-02-01T05:20:09;96974.53;;;4.55;80.89
41044;BME280;51680;49.806;18.774;2023-02-01T05:23:11;96987.22;;;4.60;80.54
41044;BME280;51680;49.806;18.774;2023-02-01T05:26:14;96977.56;;;4.63;80.99
41044;BME280;51680;49.806;18.774;2023-02-01T05:29:17;96981.97;;;4.61;81.01
41044;BME280;51680;49.806;18.774;2023-02-01T05:32:19;96978.16;;;4.51;81.22
41044;BME280;51680;49.806;18.774;2023-02-01T05:35:20;96973.91;;;4.50;81.26
41044;BME280;51680;49.806;18.774;2023-02-01T05:38:22;96975.34;;;4.56;80.77
41044;BME280;51680;49.806;18.774;2023-02-01T05:41:25;96965.56;;;4.62;80.29
41044;BME280;51680;49.806;18.774;2023-02-01T05:44:27;96963.88;;;4.61;80.83
41044;BME280;51680;49.806;18.774;2023-02-01T05:47:29;96963.72;;;4.64;80.87
41044;BME280;51680;49.806;18.774;2023-02-01T05:50:30;96955.28;;;4.61;80.29
41044;BME280;51680;49.806;18.774;2023-02-01T05:53:32;96954.53;;;4.59;80.74
41044;BME280;51680;49.806;18.774;2023-02-01T05:56:35;96951.72;;;4.63;80.77
41044;BME280;51680;49.806;18.774;2023-02-01T05:59:37;96957.88;;;4.61;80.44
41044;BME280;51680;49.806;18.774;2023-02-01T06:02:41;96963.59;;;4.67;80.75
41044;BME280;51680;49.806;18.774;2023-02-01T06:05:43;96965.25;;;4.68;80.38
41044;BME280;51680;49.806;18.774;2023-02-01T06:08:45;96970.50;;;4.67;80.33
41044;BME280;51680;49.806;18.774;2023-02-01T06:11:48;96954.22;;;4.65;79.79
41044;BME280;51680;49.806;18.774;2023-02-01T06:14:51;96960.38;;;4.62;79.93
41044;BME280;51680;49.806;18.774;2023-02-01T06:17:52;96963.94;;;4.60;80.44
41044;BME280;51680;49.806;18.774;2023-02-01T06:20:55;96961.06;;;4.66;80.08
41044;BME280;51680;49.806;18.774;2023-02-01T06:23:57;96952.25;;;4.70;79.81
41044;BME280;51680;49.806;18.774;2023-02-01T06:27:01;96950.47;;;4.72;79.46
41044;BME280;51680;49.806;18.774;2023-02-01T06:30:03;96954.66;;;4.74;79.44
41044;BME280;51680;49.806;18.774;2023-02-01T06:33:05;96957.28;;;4.73;79.54
41044;BME280;51680;49.806;18.774;2023-02-01T06:36:09;96962.22;;;4.77;79.56
41044;BME280;51680;49.806;18.774;2023-02-01T06:39:12;96967.63;;;4.73;79.48
41044;BME280;51680;49.806;18.774;2023-02-01T06:42:17;96951.88;;;4.60;78.04
41044;BME280;51680;49.806;18.774;2023-02-01T06:45:19;96957.38;;;4.71;79.47
41044;BME280;51680;49.806;18.774;2023-02-01T06:48:21;96953.56;;;4.78;78.51
41044;BME280;51680;49.806;18.774;2023-02-01T06:51:24;96948.31;;;4.80;78.75
41044;BME280;51680;49.806;18.774;2023-02-01T06:54:26;96949.16;;;4.80;78.79
41044;BME280;51680;49.806;18.774;2023-02-01T06:57:29;96951.44;;;4.86;78.32
41044;BME280;51680;49.806;18.774;2023-02-01T07:00:33;96952.97;;;4.90;78.48
41044;BME280;51680;49.806;18.774;2023-02-01T07:03:36;96946.97;;;4.90;77.74
41044;BME280;51680;49.806;18.774;2023-02-01T07:06:37;96947.66;;;4.93;78.03
41044;BME280;51680;49.806;18.774;2023-02-01T07:09:43;96945.97;;;4.92;77.67
41044;BME280;51680;49.806;18.774;2023-02-01T07:12:46;96948.41;;;4.95;77.54
41044;BME280;51680;49.806;18.774;2023-02-01T07:15:47;96939.59;;;4.99;77.33
41044;BME280;51680;49.806;18.774;2023-02-01T07:18:49;96946.75;;;4.94;77.17
41044;BME280;51680;49.806;18.774;2023-02-01T07:21:52;96944.44;;;4.88;77.71
41044;BME280;51680;49.806;18.774;2023-02-01T07:24:54;96944.38;;;4.90;77.99
41044;BME280;51680;49.806;18.774;2023-02-01T07:27:57;96946.69;;;4.96;77.69
41044;BME280;51680;49.806;18.774;2023-02-01T07:31:02;96951.47;;;5.03;77.38
41044;BME280;51680;49.806;18.774;2023-02-01T07:34:04;96946.31;;;5.03;77.37
41044;BME280;51680;49.806;18.774;2023-02-01T07:37:06;96945.47;;;5.03;77.73
41044;BME280;51680;49.806;18.774;2023-02-01T07:40:09;96953.91;;;5.06;77.61
41044;BME280;51680;49.806;18.774;2023-02-01T07:43:12;96943.84;;;5.00;77.07
41044;BME280;51680;49.806;18.774;2023-02-01T07:46:14;96950.16;;;4.95;77.58
41044;BME280;51680;49.806;18.774;2023-02-01T07:49:16;96947.50;;;4.96;77.38
41044;BME280;51680;49.806;18.774;2023-02-01T07:52:18;96947.50;;;4.96;77.52
41044;BME280;51680;49.806;18.774;2023-02-01T07:55:20;96952.66;;;4.96;76.85
41044;BME280;51680;49.806;18.774;2023-02-01T07:58:24;96939.91;;;4.93;77.45
41044;BME280;51680;49.806;18.774;2023-02-01T08:01:28;96942.41;;;4.95;77.39
41044;BME280;51680;49.806;18.774;2023-02-01T08:04:31;96944.91;;;4.96;77.47
41044;BME280;51680;49.806;18.774;2023-02-01T08:07:33;96948.56;;;4.92;76.70
41044;BME280;51680;49.806;18.774;2023-02-01T08:10:35;96939.28;;;5.05;77.04
41044;BME280;51680;49.806;18.774;2023-02-01T08:13:38;96951.91;;;5.11;77.14
41044;BME280;51680;49.806;18.774;2023-02-01T08:16:40;96950.84;;;5.15;76.44
41044;BME280;51680;49.806;18.774;2023-02-01T08:19:41;96946.16;;;5.23;76.81
41044;BME280;51680;49.806;18.774;2023-02-01T08:22:43;96933.88;;;5.27;76.30
41044;BME280;51680;49.806;18.774;2023-02-01T08:25:45;96928.78;;;5.25;75.85
41044;BME280;51680;49.806;18.774;2023-02-01T08:28:50;96923.59;;;5.25;75.95
41044;BME280;51680;49.806;18.774;2023-02-01T08:31:53;96930.91;;;5.34;75.26
41044;BME280;51680;49.806;18.774;2023-02-01T08:34:54;96929.97;;;5.52;75.50
41044;BME280;51680;49.806;18.774;2023-02-01T08:37:56;96926.13;;;5.59;74.44
41044;BME280;51680;49.806;18.774;2023-02-01T08:41:04;96929.44;;;5.63;73.56
41044;BME280;51680;49.806;18.774;2023-02-01T08:44:07;96922.00;;;5.72;73.86
41044;BME280;51680;49.806;18.774;2023-02-01T08:47:34;96928.69;;;5.76;72.47
41044;BME280;51680;49.806;18.774;2023-02-01T08:50:55;96918.69;;;5.70;73.84
41044;BME280;51680;49.806;18.774;2023-02-01T08:53:57;96918.38;;;5.59;73.80
41044;BME280;51680;49.806;18.774;2023-02-01T08:56:59;96924.06;;;5.66;73.11
41044;BME280;51680;49.806;18.774;2023-02-01T09:00:04;96919.81;;;5.65;73.23
41044;BME280;51680;49.806;18.774;2023-02-01T09:03:09;96925.25;;;5.76;73.34
41044;BME280;51680;49.806;18.774;2023-02-01T09:06:13;96914.16;;;5.74;72.91
41044;BME280;51680;49.806;18.774;2023-02-01T09:09:15;96908.63;;;5.81;73.20
41044;BME280;51680;49.806;18.774;2023-02-01T09:12:17;96920.00;;;5.94;72.88
41044;BME280;51680;49.806;18.774;2023-02-01T09:15:20;96914.06;;;5.92;72.83
41044;BME280;51680;49.806;18.774;2023-02-01T09:18:24;96910.72;;;5.90;71.94
41044;BME280;51680;49.806;18.774;2023-02-01T09:21:26;96908.72;;;5.95;72.56
41044;BME280;51680;49.806;18.774;2023-02-01T09:24:28;96900.94;;;5.95;72.09
41044;BME280;51680;49.806;18.774;2023-02-01T09:27:30;96895.34;;;5.87;71.90
41044;BME280;51680;49.806;18.774;2023-02-01T09:30:33;96898.84;;;5.86;72.08
41044;BME280;51680;49.806;18.774;2023-02-01T09:33:35;96889.09;;;5.74;71.02
41044;BME280;51680;49.806;18.774;2023-02-01T09:36:36;96903.09;;;5.87;72.33
41044;BME280;51680;49.806;18.774;2023-02-01T09:39:38;96904.03;;;5.86;70.94
41044;BME280;51680;49.806;18.774;2023-02-01T09:42:53;96900.88;;;5.80;71.63
41044;BME280;51680;49.806;18.774;2023-02-01T09:46:03;96900.84;;;5.81;71.23
41044;BME280;51680;49.806;18.774;2023-02-01T09:49:15;96895.00;;;5.93;71.69
41044;BME280;51680;49.806;18.774;2023-02-01T09:52:20;96895.19;;;5.90;71.86
41044;BME280;51680;49.806;18.774;2023-02-01T09:55:30;96887.34;;;5.92;70.97
41044;BME280;51680;49.806;18.774;2023-02-01T09:58:37;96888.22;;;5.91;71.35
41044;BME280;51680;49.806;18.774;2023-02-01T10:01:42;96879.31;;;5.96;71.57
41044;BME280;51680;49.806;18.774;2023-02-01T10:04:44;96872.19;;;6.00;71.11
41044;BME280;51680;49.806;18.774;2023-02-01T10:07:53;96874.72;;;6.17;69.96
41044;BME280;51680;49.806;18.774;2023-02-01T10:11:06;96881.28;;;6.22;70.31
41044;BME280;51680;49.806;18.774;2023-02-01T10:14:26;96854.81;;;6.17;69.06
41044;BME280;51680;49.806;18.774;2023-02-01T10:17:46;96860.25;;;6.28;69.16
41044;BME280;51680;49.806;18.774;2023-02-01T10:21:00;96857.31;;;6.34;69.54
41044;BME280;51680;49.806;18.774;2023-02-01T10:24:19;96847.41;;;6.56;68.45
41044;BME280;51680;49.806;18.774;2023-02-01T10:27:24;96857.22;;;6.51;69.25
41044;BME280;51680;49.806;18.774;2023-02-01T10:30:33;96859.25;;;6.60;69.08
41044;BME280;51680;49.806;18.774;2023-02-01T10:33:44;96855.81;;;6.75;68.50
41044;BME280;51680;49.806;18.774;2023-02-01T10:36:54;96845.59;;;6.72;67.99
41044;BME280;51680;49.806;18.774;2023-02-01T10:39:59;96844.16;;;6.82;68.40
41044;BME280;51680;49.806;18.774;2023-02-01T10:43:02;96835.66;;;6.94;68.67
41044;BME280;51680;49.806;18.774;2023-02-01T10:46:04;96832.47;;;6.89;68.27
41044;BME280;51680;49.806;18.774;2023-02-01T10:49:17;96834.53;;;6.98;67.50
41044;BME280;51680;49.806;18.774;2023-02-01T10:52:25;96833.66;;;7.13;68.11
41044;BME280;51680;49.806;18.774;2023-02-01T10:55:36;96833.66;;;7.27;67.30
41044;BME280;51680;49.806;18.774;2023-02-01T10:58:44;96833.47;;;7.30;67.29
41044;BME280;51680;49.806;18.774;2023-02-01T11:01:47;96826.06;;;7.24;67.21
41044;BME280;51680;49.806;18.774;2023-02-01T11:04:58;96825.13;;;7.11;66.94
41044;BME280;51680;49.806;18.774;2023-02-01T11:08:01;96825.75;;;7.01;67.82
41044;BME280;51680;49.806;18.774;2023-02-01T11:11:03;96822.41;;;6.99;68.07
41044;BME280;51680;49.806;18.774;2023-02-01T11:14:13;96813.06;;;6.96;67.93
41044;BME280;51680;49.806;18.774;2023-02-01T11:17:23;96800.16;;;6.95;67.99
41044;BME280;51680;49.806;18.774;2023-02-01T11:20:36;96814.06;;;6.94;67.57
41044;BME280;51680;49.806;18.774;2023-02-01T11:23:42;96799.69;;;6.88;68.39
41044;BME280;51680;49.806;18.774;2023-02-01T11:26:45;96805.72;;;6.89;69.12
41044;BME280;51680;49.806;18.774;2023-02-01T11:29:50;96798.19;;;6.84;68.23
41044;BME280;51680;49.806;18.774;2023-02-01T11:32:53;96791.34;;;6.83;68.97
41044;BME280;51680;49.806;18.774;2023-02-01T11:35:57;96800.22;;;6.79;69.44
41044;BME280;51680;49.806;18.774;2023-02-01T11:39:21;96802.38;;;6.87;68.48
41044;BME280;51680;49.806;18.774;2023-02-01T11:42:26;96792.72;;;6.75;70.21
41044;BME280;51680;49.806;18.774;2023-02-01T11:45:29;96794.03;;;6.82;69.99
41044;BME280;51680;49.806;18.774;2023-02-01T11:48:33;96795.97;;;6.78;70.34
41044;BME280;51680;49.806;18.774;2023-02-01T11:51:44;96793.00;;;6.84;69.99
41044;BME280;51680;49.806;18.774;2023-02-01T11:55:04;96790.53;;;6.83;70.47
41044;BME280;51680;49.806;18.774;2023-02-01T11:58:23;96783.31;;;6.88;69.79
41044;BME280;51680;49.806;18.774;2023-02-01T12:01:44;96779.69;;;6.76;70.53
41044;BME280;51680;49.806;18.774;2023-02-01T12:08:32;96781.13;;;6.66;70.13
41044;BME280;51680;49.806;18.774;2023-02-01T12:11:46;96780.22;;;6.67;70.98
41044;BME280;51680;49.806;18.774;2023-02-01T12:15:00;96779.75;;;6.75;70.79
41044;BME280;51680;49.806;18.774;2023-02-01T12:18:17;96767.06;;;6.70;69.83
41044;BME280;51680;49.806;18.774;2023-02-01T12:21:34;96767.81;;;6.72;69.98
41044;BME280;51680;49.806;18.774;2023-02-01T12:25:05;96763.25;;;6.76;70.42
41044;BME280;51680;49.806;18.774;2023-02-01T12:28:24;96754.31;;;6.81;70.11
41044;BME280;51680;49.806;18.774;2023-02-01T12:31:49;96753.75;;;6.76;70.28
41044;BME280;51680;49.806;18.774;2023-02-01T12:35:02;96756.69;;;6.70;70.86
41044;BME280;51680;49.806;18.774;2023-02-01T12:38:19;96760.94;;;6.57;70.89
41044;BME280;51680;49.806;18.774;2023-02-01T12:41:45;96765.47;;;6.54;72.10
41044;BME280;51680;49.806;18.774;2023-02-01T12:44:51;96757.97;;;6.34;73.16
41044;BME280;51680;49.806;18.774;2023-02-01T12:48:00;96765.44;;;6.40;72.94
41044;BME280;51680;49.806;18.774;2023-02-01T12:51:10;96751.41;;;6.28;73.84
41044;BME280;51680;49.806;18.774;2023-02-01T12:54:20;96745.66;;;6.23;73.43
41044;BME280;51680;49.806;18.774;2023-02-01T12:57:27;96748.41;;;6.20;74.28
41044;BME280;51680;49.806;18.774;2023-02-01T13:00:35;96744.03;;;6.07;74.71
41044;BME280;51680;49.806;18.774;2023-02-01T13:03:40;96745.97;;;6.03;74.64
41044;BME280;51680;49.806;18.774;2023-02-01T13:06:47;96732.59;;;5.95;74.76
41044;BME280;51680;49.806;18.774;2023-02-01T13:09:56;96743.63;;;5.99;74.84
41044;BME280;51680;49.806;18.774;2023-02-01T13:13:10;96740.50;;;6.08;74.84
41044;BME280;51680;49.806;18.774;2023-02-01T13:16:16;96746.03;;;6.02;75.36
41044;BME280;51680;49.806;18.774;2023-02-01T13:19:24;96741.44;;;5.91;75.43
41044;BME280;51680;49.806;18.774;2023-02-01T13:22:30;96731.75;;;5.79;76.17
41044;BME280;51680;49.806;18.774;2023-02-01T13:25:37;96737.09;;;5.76;76.62
41044;BME280;51680;49.806;18.774;2023-02-01T13:28:46;96727.56;;;5.77;77.21
41044;BME280;51680;49.806;18.774;2023-02-01T13:31:59;96719.72;;;5.78;77.33
41044;BME280;51680;49.806;18.774;2023-02-01T13:35:20;96713.69;;;5.93;76.50
41044;BME280;51680;49.806;18.774;2023-02-01T13:41:58;96702.03;;;5.86;76.33
41044;BME280;51680;49.806;18.774;2023-02-01T13:45:04;96719.22;;;5.87;76.51
41044;BME280;51680;49.806;18.774;2023-02-01T13:48:18;96718.22;;;5.74;76.80
41044;BME280;51680;49.806;18.774;2023-02-01T13:51:33;96725.59;;;5.66;76.98
41044;BME280;51680;49.806;18.774;2023-02-01T13:55:13;96722.91;;;5.68;77.05
41044;BME280;51680;49.806;18.774;2023-02-01T13:58:19;96707.06;;;5.58;77.63
41044;BME280;51680;49.806;18.774;2023-02-01T14:01:34;96728.84;;;5.54;78.51
41044;BME280;51680;49.806;18.774;2023-02-01T14:04:47;96712.34;;;5.41;78.57
41044;BME280;51680;49.806;18.774;2023-02-01T14:08:02;96710.72;;;5.23;80.03
41044;BME280;51680;49.806;18.774;2023-02-01T14:11:37;96713.97;;;5.11;80.76
41044;BME280;51680;49.806;18.774;2023-02-01T14:14:40;96721.91;;;5.08;80.57
41044;BME280;51680;49.806;18.774;2023-02-01T14:17:43;96720.66;;;5.15;80.75
41044;BME280;51680;49.806;18.774;2023-02-01T14:20:46;96727.47;;;5.01;81.97
41044;BME280;51680;49.806;18.774;2023-02-01T14:23:58;96730.72;;;5.04;81.42
41044;BME280;51680;49.806;18.774;2023-02-01T14:27:02;96734.31;;;5.02;81.42
41044;BME280;51680;49.806;18.774;2023-02-01T14:30:16;96729.97;;;5.02;81.84
41044;BME280;51680;49.806;18.774;2023-02-01T14:33:23;96734.25;;;5.03;81.98
41044;BME280;51680;49.806;18.774;2023-02-01T14:36:25;96736.31;;;4.97;81.99
41044;BME280;51680;49.806;18.774;2023-02-01T14:39:36;96735.53;;;4.95;82.94
41044;BME280;51680;49.806;18.774;2023-02-01T14:42:43;96732.06;;;4.96;82.59
41044;BME280;51680;49.806;18.774;2023-02-01T14:45:49;96746.88;;;4.92;82.63
41044;BME280;51680;49.806;18.774;2023-02-01T14:48:53;96751.38;;;4.89;83.21
41044;BME280;51680;49.806;18.774;2023-02-01T14:51:56;96750.38;;;4.91;83.21
41044;BME280;51680;49.806;18.774;2023-02-01T14:55:03;96743.69;;;4.87;83.19
41044;BME280;51680;49.806;18.774;2023-02-01T14:58:15;96751.53;;;4.86;83.76
41044;BME280;51680;49.806;18.774;2023-02-01T15:01:21;96755.56;;;4.91;83.28
41044;BME280;51680;49.806;18.774;2023-02-01T15:04:27;96759.06;;;4.90;83.19
41044;BME280;51680;49.806;18.774;2023-02-01T15:07:29;96756.09;;;4.81;84.04
41044;BME280;51680;49.806;18.774;2023-02-01T15:10:33;96752.69;;;4.80;83.97
41044;BME280;51680;49.806;18.774;2023-02-01T15:13:40;96759.53;;;4.81;83.91
41044;BME280;51680;49.806;18.774;2023-02-01T15:16:42;96767.16;;;4.84;83.89
41044;BME280;51680;49.806;18.774;2023-02-01T15:19:55;96773.97;;;4.85;84.29
41044;BME280;51680;49.806;18.774;2023-02-01T15:22:59;96766.22;;;4.85;84.51
41044;BME280;51680;49.806;18.774;2023-02-01T15:26:01;96773.06;;;4.86;83.90
41044;BME280;51680;49.806;18.774;2023-02-01T15:29:02;96774.44;;;4.93;83.96
41044;BME280;51680;49.806;18.774;2023-02-01T15:32:04;96773.81;;;4.88;84.54
41044;BME280;51680;49.806;18.774;2023-02-01T15:35:32;96772.97;;;4.88;84.53
41044;BME280;51680;49.806;18.774;2023-02-01T15:38:38;96766.97;;;4.87;83.66
41044;BME280;51680;49.806;18.774;2023-02-01T15:41:41;96772.22;;;4.86;83.86
41044;BME280;51680;49.806;18.774;2023-02-01T15:44:44;96774.56;;;4.90;83.77
41044;BME280;51680;49.806;18.774;2023-02-01T15:48:16;96779.59;;;4.93;83.77
41044;BME280;51680;49.806;18.774;2023-02-01T15:51:25;96783.78;;;4.96;83.21
41044;BME280;51680;49.806;18.774;2023-02-01T15:54:31;96788.56;;;4.86;83.55
41044;BME280;51680;49.806;18.774;2023-02-01T15:57:35;96788.56;;;4.86;83.94
41044;BME280;51680;49.806;18.774;2023-02-01T16:00:43;96803.16;;;4.87;83.43
41044;BME280;51680;49.806;18.774;2023-02-01T16:03:46;96805.13;;;4.99;82.21
41044;BME280;51680;49.806;18.774;2023-02-01T16:06:51;96808.38;;;5.03;82.41
41044;BME280;51680;49.806;18.774;2023-02-01T16:09:56;96808.13;;;5.07;82.08
41044;BME280;51680;49.806;18.774;2023-02-01T16:12:58;96825.94;;;5.13;81.41
41044;BME280;51680;49.806;18.774;2023-02-01T16:16:01;96825.38;;;5.24;81.40
41044;BME280;51680;49.806;18.774;2023-02-01T16:19:04;96829.13;;;5.18;81.81
41044;BME280;51680;49.806;18.774;2023-02-01T16:22:08;96838.25;;;5.25;81.32
41044;BME280;51680;49.806;18.774;2023-02-01T16:25:10;96842.41;;;5.28;81.13
41044;BME280;51680;49.806;18.774;2023-02-01T16:28:12;96838.91;;;5.29;81.14
41044;BME280;51680;49.806;18.774;2023-02-01T16:31:16;96829.72;;;5.23;81.37
41044;BME280;51680;49.806;18.774;2023-02-01T16:34:23;96832.91;;;5.28;80.97